Time;durP1;ratioP1;P1;durP2;ratioP2;P2;SDS_P1;SDS_P2;PMS_P1;PMS_P2;Temp;Humidity;BMP_temperature;BMP_pressure;BME280_temperature;BME280_humidity;BME280_pressure;Samples;Min_cycle;Max_cycle;Signal;HPM_P1;HPM_P2
2024/01/05 00:00:12;;;;;;;28.70;9.30;;;;;;;;;;4977745;28;20065;-55
2024/01/05 00:02:40;;;;;;;19.05;6.78;;;;;;;;;;4976912;28;20130;-58
2024/01/05 00:05:09;;;;;;;19.70;8.10;;;;;;;;;;4966369;28;20561;-57
2024/01/05 00:07:37;;;;;;;22.00;7.88;;;;;;;;;;4973482;28;20038;-56
2024/01/05 00:10:06;;;;;;;22.13;7.70;;;;;;;;;;4972823;28;20034;-57
2024/01/05 00:12:33;;;;;;;31.33;9.93;;;;;;;;;;4976166;28;20040;-54
2024/01/05 00:15:01;;;;;;;25.90;8.80;;;;;;;;;;4965010;28;20160;-55
2024/01/05 00:17:29;;;;;;;31.58;9.38;;;;;;;;;;4975519;28;20049;-54
2024/01/05 00:19:57;;;;;;;30.70;9.73;;;;;;;;;;4963092;28;20096;-54
2024/01/05 00:22:27;;;;;;;25.40;9.77;;;;;;;;;;4981325;28;20048;-57
2024/01/05 00:24:55;;;;;;;28.60;10.83;;;;;;;;;;4975058;28;20062;-57
2024/01/05 00:27:23;;;;;;;24.77;10.35;;;;;;;;;;4957908;28;20046;-53
2024/01/05 00:29:51;;;;;;;33.65;10.98;;;;;;;;;;4976625;28;20049;-56
2024/01/05 00:32:25;;;;;;;33.03;10.82;;;;;;;;;;4914256;28;20120;-58
2024/01/05 00:34:53;;;;;;;30.00;8.93;;;;;;;;;;4892274;28;20057;-57
2024/01/05 00:37:21;;;;;;;27.63;8.73;;;;;;;;;;4964259;28;20564;-57
2024/01/05 00:39:50;;;;;;;31.13;7.82;;;;;;;;;;4967963;28;20426;-56
2024/01/05 00:42:18;;;;;;;21.50;7.85;;;;;;;;;;4969025;28;20096;-57
2024/01/05 00:44:46;;;;;;;35.67;8.52;;;;;;;;;;4969857;28;20112;-53
2024/01/05 00:47:13;;;;;;;28.20;7.35;;;;;;;;;;4870396;28;20659;-55
2024/01/05 00:49:42;;;;;;;30.27;7.73;;;;;;;;;;4975808;28;20499;-54
2024/01/05 00:52:09;;;;;;;24.17;7.15;;;;;;;;;;4956251;28;20037;-57
2024/01/05 00:54:37;;;;;;;22.90;7.40;;;;;;;;;;4942475;28;20052;-55
2024/01/05 00:57:07;;;;;;;23.92;6.20;;;;;;;;;;4958678;28;20077;-56
2024/01/05 00:59:39;;;;;;;25.15;6.03;;;;;;;;;;4967802;28;20054;-57
2024/01/05 01:02:06;;;;;;;20.50;6.50;;;;;;;;;;4953428;28;20109;-57
2024/01/05 01:04:34;;;;;;;23.48;5.97;;;;;;;;;;4983742;28;20038;-52
2024/01/05 01:07:02;;;;;;;20.02;4.95;;;;;;;;;;4955704;28;20508;-55
2024/01/05 01:09:30;;;;;;;17.40;4.82;;;;;;;;;;4972112;28;20042;-56
2024/01/05 01:11:58;;;;;;;12.10;3.97;;;;;;;;;;4954647;28;20073;-53
2024/01/05 01:14:27;;;;;;;19.37;4.23;;;;;;;;;;4968561;28;20102;-56
2024/01/05 01:16:55;;;;;;;13.45;4.03;;;;;;;;;;4979301;28;20780;-54
2024/01/05 01:19:22;;;;;;;20.77;4.05;;;;;;;;;;4974280;28;20038;-57
2024/01/05 01:21:50;;;;;;;20.08;4.32;;;;;;;;;;4954018;28;20034;-57
2024/01/05 01:24:18;;;;;;;19.03;4.30;;;;;;;;;;4622571;28;10000466;-56
2024/01/05 01:26:46;;;;;;;17.07;3.13;;;;;;;;;;4261261;28;10000605;-57
2024/01/05 01:29:13;;;;;;;16.90;4.65;;;;;;;;;;4971684;28;20057;-56
2024/01/05 01:31:43;;;;;;;16.55;3.90;;;;;;;;;;4959930;28;20037;-57
2024/01/05 01:34:10;;;;;;;15.45;3.25;;;;;;;;;;4818731;28;20293;-58
2024/01/05 01:36:38;;;;;;;18.63;3.92;;;;;;;;;;4970149;28;20053;-57
2024/01/05 01:39:06;;;;;;;24.93;3.87;;;;;;;;;;4965555;28;20061;-58
2024/01/05 01:41:34;;;;;;;15.70;3.85;;;;;;;;;;4967926;28;20038;-55
2024/01/05 01:44:02;;;;;;;15.68;3.72;;;;;;;;;;4970492;28;20065;-57
2024/01/05 01:46:33;;;;;;;18.67;3.90;;;;;;;;;;4975531;28;20052;-57
2024/01/05 01:49:02;;;;;;;19.55;3.50;;;;;;;;;;4956865;28;20046;-56
2024/01/05 01:51:32;;;;;;;14.57;3.40;;;;;;;;;;4970988;28;20407;-53
2024/01/05 01:54:05;;;;;;;12.57;3.45;;;;;;;;;;4968468;28;20497;-58
2024/01/05 01:56:33;;;;;;;16.38;3.45;;;;;;;;;;4974303;28;20042;-57
2024/01/05 01:59:01;;;;;;;18.40;3.42;;;;;;;;;;4959968;28;20120;-56
2024/01/05 02:01:29;;;;;;;14.32;4.78;;;;;;;;;;4973578;28;20115;-57
2024/01/05 02:03:56;;;;;;;14.70;4.27;;;;;;;;;;4955264;28;20100;-58
2024/01/05 02:06:26;;;;;;;13.63;3.80;;;;;;;;;;4951002;28;20046;-57
2024/01/05 02:08:54;;;;;;;17.25;4.70;;;;;;;;;;4939276;28;20625;-57
2024/01/05 02:11:22;;;;;;;18.13;5.13;;;;;;;;;;4963996;28;20571;-57
2024/01/05 02:13:49;;;;;;;17.65;4.38;;;;;;;;;;4972841;28;20040;-57
2024/01/05 02:16:17;;;;;;;17.10;4.00;;;;;;;;;;4965138;28;20486;-56
2024/01/05 02:18:52;;;;;;;12.68;3.38;;;;;;;;;;4974389;28;20037;-56
2024/01/05 02:21:22;;;;;;;15.35;3.95;;;;;;;;;;4977062;28;20050;-57
2024/01/05 02:23:52;;;;;;;12.45;3.72;;;;;;;;;;4969083;28;20046;-57
2024/01/05 02:26:20;;;;;;;14.20;3.80;;;;;;;;;;4966015;28;20042;-58
2024/01/05 02:28:48;;;;;;;18.50;3.23;;;;;;;;;;4961409;28;20104;-57
2024/01/05 02:31:16;;;;;;;17.02;3.95;;;;;;;;;;4970366;28;20040;-56
2024/01/05 02:33:50;;;;;;;10.63;2.83;;;;;;;;;;4880425;28;20088;-57
2024/01/05 02:36:18;;;;;;;18.38;3.53;;;;;;;;;;4969435;28;20058;-55
2024/01/05 02:38:45;;;;;;;16.58;2.55;;;;;;;;;;4963372;28;20105;-58
2024/01/05 02:41:14;;;;;;;16.73;2.90;;;;;;;;;;4968022;28;20119;-53
2024/01/05 02:43:42;;;;;;;10.98;2.70;;;;;;;;;;4948928;28;20040;-57
2024/01/05 02:46:10;;;;;;;15.93;3.38;;;;;;;;;;4950771;28;20045;-55
2024/01/05 02:48:38;;;;;;;13.35;2.53;;;;;;;;;;4974599;28;20874;-57
2024/01/05 02:51:06;;;;;;;15.13;2.92;;;;;;;;;;4977008;28;20050;-56
2024/01/05 02:53:33;;;;;;;17.57;2.43;;;;;;;;;;4979551;28;20271;-52
2024/01/05 02:56:01;;;;;;;18.63;2.40;;;;;;;;;;4950432;28;20049;-56
2024/01/05 02:58:30;;;;;;;14.70;2.38;;;;;;;;;;4975040;28;20062;-57
2024/01/05 03:00:58;;;;;;;10.25;2.58;;;;;;;;;;4963769;28;20038;-55
2024/01/05 03:03:26;;;;;;;11.73;2.58;;;;;;;;;;4986284;28;20038;-57
2024/01/05 03:05:54;;;;;;;15.43;1.90;;;;;;;;;;4965984;28;23790;-53
2024/01/05 03:08:22;;;;;;;16.15;2.25;;;;;;;;;;4979566;28;20500;-54
2024/01/05 03:10:49;;;;;;;7.90;1.88;;;;;;;;;;4964913;28;20054;-57
2024/01/05 03:13:17;;;;;;;12.57;1.98;;;;;;;;;;4977276;28;20049;-55
2024/01/05 03:15:46;;;;;;;9.55;2.80;;;;;;;;;;4967669;28;20050;-56
2024/01/05 03:18:14;;;;;;;13.33;2.07;;;;;;;;;;4995962;28;20496;-54
2024/01/05 03:20:42;;;;;;;9.88;1.77;;;;;;;;;;4965183;28;20044;-54
2024/01/05 03:23:10;;;;;;;11.45;2.60;;;;;;;;;;4985500;28;20045;-55
2024/01/05 03:25:37;;;;;;;10.00;1.65;;;;;;;;;;4969701;28;20038;-55
2024/01/05 03:28:05;;;;;;;17.30;2.03;;;;;;;;;;4641383;28;10000649;-54
2024/01/05 03:30:34;;;;;;;8.40;1.40;;;;;;;;;;4975974;28;20686;-55
2024/01/05 03:33:09;;;;;;;13.73;1.50;;;;;;;;;;4906235;28;20057;-57
2024/01/05 03:35:37;;;;;;;12.68;1.50;;;;;;;;;;4905940;28;20034;-56
2024/01/05 03:38:05;;;;;;;8.37;1.00;;;;;;;;;;4978302;28;20048;-57
2024/01/05 03:40:36;;;;;;;15.15;1.63;;;;;;;;;;4977513;28;20049;-57
2024/01/05 03:43:04;;;;;;;13.70;1.50;;;;;;;;;;4993944;28;20046;-54
2024/01/05 03:45:32;;;;;;;17.55;1.85;;;;;;;;;;4963235;28;20042;-53
2024/01/05 03:48:01;;;;;;;11.32;1.63;;;;;;;;;;4976365;28;20361;-58
2024/01/05 03:50:36;;;;;;;10.80;1.57;;;;;;;;;;4972417;28;20042;-56
2024/01/05 03:53:03;;;;;;;11.60;1.67;;;;;;;;;;4988453;28;20038;-55
2024/01/05 03:55:31;;;;;;;12.93;1.45;;;;;;;;;;4960386;28;20038;-57
2024/01/05 03:57:59;;;;;;;13.02;1.42;;;;;;;;;;4985588;28;20115;-55
2024/01/05 04:00:27;;;;;;;10.27;1.17;;;;;;;;;;4966322;28;20408;-53
2024/01/05 04:02:55;;;;;;;13.97;1.27;;;;;;;;;;4961595;28;20034;-55
2024/01/05 04:05:23;;;;;;;9.35;1.00;;;;;;;;;;4973669;28;20062;-56
2024/01/05 04:07:52;;;;;;;10.57;1.23;;;;;;;;;;4972144;28;20041;-53
2024/01/05 04:10:20;;;;;;;9.45;1.08;;;;;;;;;;4971125;28;20038;-55
2024/01/05 04:12:48;;;;;;;12.50;0.90;;;;;;;;;;4948771;28;20030;-55
2024/01/05 04:15:15;;;;;;;9.80;0.90;;;;;;;;;;4969618;28;20042;-57
2024/01/05 04:17:43;;;;;;;9.75;1.30;;;;;;;;;;4973160;28;20046;-55
2024/01/05 04:20:11;;;;;;;9.57;0.60;;;;;;;;;;4979618;28;20050;-55
2024/01/05 04:22:39;;;;;;;6.97;0.90;;;;;;;;;;4974102;28;20523;-56
2024/01/05 04:25:09;;;;;;;10.35;1.00;;;;;;;;;;4968371;28;20038;-54
2024/01/05 04:27:41;;;;;;;8.03;1.47;;;;;;;;;;4978992;28;20096;-54
2024/01/05 04:30:12;;;;;;;7.30;1.00;;;;;;;;;;4985101;28;20536;-54
2024/01/05 04:32:40;;;;;;;8.00;0.88;;;;;;;;;;4910465;28;20498;-55
2024/01/05 04:35:08;;;;;;;9.40;0.90;;;;;;;;;;4901485;28;20049;-55
2024/01/05 04:37:36;;;;;;;12.57;1.02;;;;;;;;;;4963795;28;20046;-54
2024/01/05 04:40:05;;;;;;;6.57;0.80;;;;;;;;;;4968541;28;20118;-57
2024/01/05 04:42:34;;;;;;;9.32;1.13;;;;;;;;;;4982639;28;20110;-55
2024/01/05 04:45:04;;;;;;;5.80;0.50;;;;;;;;;;4966624;28;20081;-57
2024/01/05 04:47:34;;;;;;;6.53;0.88;;;;;;;;;;4969620;28;20557;-55
2024/01/05 04:50:04;;;;;;;7.90;1.60;;;;;;;;;;4975014;28;20045;-53
2024/01/05 04:52:35;;;;;;;8.90;1.00;;;;;;;;;;4980940;28;20038;-55
2024/01/05 04:55:03;;;;;;;5.45;0.57;;;;;;;;;;4974382;28;20053;-55
2024/01/05 04:57:31;;;;;;;9.40;0.93;;;;;;;;;;4980409;28;20038;-57
2024/01/05 05:00:01;;;;;;;8.18;0.85;;;;;;;;;;4957583;28;20823;-54
2024/01/05 05:02:28;;;;;;;13.35;0.82;;;;;;;;;;4979384;28;20042;-55
2024/01/05 05:04:56;;;;;;;10.77;0.60;;;;;;;;;;4973776;28;20041;-52
2024/01/05 05:07:24;;;;;;;6.43;0.77;;;;;;;;;;4978928;28;20052;-52
2024/01/05 05:09:52;;;;;;;5.20;0.50;;;;;;;;;;4962130;28;20045;-50
2024/01/05 05:12:19;;;;;;;6.82;0.80;;;;;;;;;;4985340;28;20493;-55
2024/01/05 05:14:47;;;;;;;9.05;0.70;;;;;;;;;;4971667;28;20045;-54
2024/01/05 05:17:16;;;;;;;6.93;0.50;;;;;;;;;;4985206;28;20053;-52
2024/01/05 05:19:44;;;;;;;7.80;0.50;;;;;;;;;;4979933;28;20048;-53
2024/01/05 05:22:12;;;;;;;7.82;0.65;;;;;;;;;;4986273;28;20050;-52
2024/01/05 05:24:40;;;;;;;6.55;0.55;;;;;;;;;;4970596;28;20590;-57
2024/01/05 05:27:08;;;;;;;4.13;0.50;;;;;;;;;;4976673;28;20136;-54
2024/01/05 05:29:36;;;;;;;3.77;0.53;;;;;;;;;;4990434;28;20566;-54
2024/01/05 05:32:04;;;;;;;4.70;0.70;;;;;;;;;;4981683;28;20046;-57
2024/01/05 05:34:33;;;;;;;8.93;0.50;;;;;;;;;;4844457;28;20045;-57
2024/01/05 05:37:01;;;;;;;7.05;0.45;;;;;;;;;;4970247;28;20052;-54
2024/01/05 05:39:28;;;;;;;5.75;0.52;;;;;;;;;;4984381;28;20431;-56
2024/01/05 05:41:56;;;;;;;5.50;0.47;;;;;;;;;;4978873;28;20044;-54
2024/01/05 05:44:24;;;;;;;8.02;0.57;;;;;;;;;;4988281;28;20052;-56
2024/01/05 05:46:53;;;;;;;10.52;0.68;;;;;;;;;;4969227;28;20049;-55
2024/01/05 05:49:21;;;;;;;8.27;0.40;;;;;;;;;;4978696;28;20048;-55
2024/01/05 05:51:51;;;;;;;6.03;0.82;;;;;;;;;;4956131;28;21079;-56
2024/01/05 05:54:19;;;;;;;9.83;0.70;;;;;;;;;;4969263;28;20065;-56
2024/01/05 05:56:46;;;;;;;6.95;0.77;;;;;;;;;;4958739;28;20126;-57
2024/01/05 05:59:14;;;;;;;6.68;0.88;;;;;;;;;;4968807;28;21232;-56
2024/01/05 06:01:42;;;;;;;8.60;1.23;;;;;;;;;;4959470;28;20563;-55
2024/01/05 06:04:10;;;;;;;7.60;0.80;;;;;;;;;;4967498;28;20410;-55
2024/01/05 06:06:38;;;;;;;5.30;0.80;;;;;;;;;;4968380;28;20052;-53
2024/01/05 06:09:07;;;;;;;6.30;0.43;;;;;;;;;;4977025;28;20109;-55
2024/01/05 06:11:35;;;;;;;9.48;1.00;;;;;;;;;;4965650;28;20070;-54
2024/01/05 06:14:04;;;;;;;4.75;0.32;;;;;;;;;;4957109;28;20042;-56
2024/01/05 06:16:32;;;;;;;5.70;0.50;;;;;;;;;;4973847;28;20042;-54
2024/01/05 06:19:00;;;;;;;9.60;1.03;;;;;;;;;;4971676;28;20117;-52
2024/01/05 06:21:28;;;;;;;4.75;1.10;;;;;;;;;;4970904;28;20409;-52
2024/01/05 06:23:55;;;;;;;8.70;0.47;;;;;;;;;;4963112;28;20053;-54
2024/01/05 06:26:25;;;;;;;5.78;0.68;;;;;;;;;;4967644;28;20052;-57
2024/01/05 06:28:53;;;;;;;4.00;0.30;;;;;;;;;;4979379;28;20049;-53
2024/01/05 06:31:22;;;;;;;5.67;0.50;;;;;;;;;;4963504;28;20738;-56
2024/01/05 06:33:51;;;;;;;5.95;0.60;;;;;;;;;;4833454;28;20045;-55
2024/01/05 06:36:19;;;;;;;3.42;0.40;;;;;;;;;;4970799;28;20077;-54
2024/01/05 06:38:47;;;;;;;5.05;0.68;;;;;;;;;;4980001;28;20703;-52
2024/01/05 06:41:15;;;;;;;9.07;0.50;;;;;;;;;;4964524;28;20041;-52
2024/01/05 06:43:45;;;;;;;6.83;0.50;;;;;;;;;;4961270;28;20124;-57
2024/01/05 06:46:15;;;;;;;5.78;0.47;;;;;;;;;;4970097;28;20481;-53
2024/01/05 06:48:43;;;;;;;7.22;0.50;;;;;;;;;;4977012;28;20042;-52
2024/01/05 06:51:11;;;;;;;4.18;0.50;;;;;;;;;;4951852;28;20780;-52
2024/01/05 06:53:39;;;;;;;12.07;0.60;;;;;;;;;;4979476;28;20517;-56
2024/01/05 06:56:08;;;;;;;8.53;0.50;;;;;;;;;;4965150;28;20042;-51
2024/01/05 06:58:36;;;;;;;8.57;1.95;;;;;;;;;;4981044;28;20064;-52
2024/01/05 07:01:05;;;;;;;6.18;0.50;;;;;;;;;;4963879;28;20541;-54
2024/01/05 07:03:33;;;;;;;8.68;0.60;;;;;;;;;;4976924;28;20118;-55
2024/01/05 07:06:02;;;;;;;5.45;0.40;;;;;;;;;;4943547;28;20115;-54
2024/01/05 07:08:30;;;;;;;3.63;0.40;;;;;;;;;;4961883;28;20042;-55
2024/01/05 07:10:58;;;;;;;6.30;0.40;;;;;;;;;;4982926;28;20045;-52
2024/01/05 07:13:26;;;;;;;5.78;0.60;;;;;;;;;;4962136;28;20050;-54
2024/01/05 07:15:55;;;;;;;6.28;0.57;;;;;;;;;;4964305;28;20056;-50
2024/01/05 07:18:24;;;;;;;8.75;0.50;;;;;;;;;;4990390;28;20049;-55
2024/01/05 07:20:52;;;;;;;7.53;1.00;;;;;;;;;;4909484;28;20298;-52
2024/01/05 07:23:19;;;;;;;7.40;1.27;;;;;;;;;;4971938;28;20104;-51
2024/01/05 07:25:47;;;;;;;9.95;0.55;;;;;;;;;;4954266;28;20210;-55
2024/01/05 07:28:15;;;;;;;9.25;0.50;;;;;;;;;;4981089;28;20050;-54
2024/01/05 07:30:43;;;;;;;7.10;0.52;;;;;;;;;;4969901;28;20053;-55
2024/01/05 07:33:11;;;;;;;5.73;0.43;;;;;;;;;;4905015;28;20136;-49
2024/01/05 07:35:41;;;;;;;8.32;0.82;;;;;;;;;;4887812;28;20576;-54
2024/01/05 07:38:09;;;;;;;4.13;0.40;;;;;;;;;;4896370;28;20046;-52
2024/01/05 07:40:36;;;;;;;7.28;0.60;;;;;;;;;;4965924;28;20880;-49
2024/01/05 07:43:04;;;;;;;8.55;0.40;;;;;;;;;;4953290;28;20038;-54
2024/01/05 07:45:32;;;;;;;9.77;0.87;;;;;;;;;;4963406;28;20052;-50
2024/01/05 07:47:59;;;;;;;4.18;0.40;;;;;;;;;;4955726;28;20460;-49
2024/01/05 07:50:27;;;;;;;7.95;0.43;;;;;;;;;;4972866;28;20038;-50
2024/01/05 07:52:57;;;;;;;5.90;0.43;;;;;;;;;;4957072;28;20353;-55
2024/01/05 07:55:24;;;;;;;9.55;0.90;;;;;;;;;;4957380;28;20514;-51
2024/01/05 07:57:55;;;;;;;6.20;0.73;;;;;;;;;;4978204;28;20121;-56
2024/01/05 08:00:25;;;;;;;3.72;0.50;;;;;;;;;;4958356;28;21043;-51
2024/01/05 08:02:53;;;;;;;7.95;0.40;;;;;;;;;;4958342;28;20417;-54
2024/01/05 08:05:22;;;;;;;5.97;0.50;;;;;;;;;;4954334;28;20142;-53
2024/01/05 08:07:50;;;;;;;6.90;0.40;;;;;;;;;;4950303;28;20100;-52
2024/01/05 08:10:19;;;;;;;6.90;0.53;;;;;;;;;;4959127;28;20056;-55
2024/01/05 08:12:47;;;;;;;8.50;0.52;;;;;;;;;;4974187;28;20528;-56
2024/01/05 08:15:14;;;;;;;9.15;1.15;;;;;;;;;;4966841;28;20157;-54
2024/01/05 08:17:42;;;;;;;8.18;0.70;;;;;;;;;;4971199;28;21018;-51
2024/01/05 08:20:11;;;;;;;6.57;0.73;;;;;;;;;;4952267;28;20559;-54
2024/01/05 08:22:38;;;;;;;5.87;1.17;;;;;;;;;;4956528;28;20046;-54
2024/01/05 08:25:06;;;;;;;7.07;0.80;;;;;;;;;;4967151;28;20049;-50
2024/01/05 08:27:36;;;;;;;9.20;1.00;;;;;;;;;;4954245;28;20038;-54
2024/01/05 08:30:04;;;;;;;5.00;0.63;;;;;;;;;;4958786;28;20046;-52
2024/01/05 08:32:32;;;;;;;5.32;0.60;;;;;;;;;;4898118;28;24278;-48
2024/01/05 08:35:00;;;;;;;5.07;0.70;;;;;;;;;;4884459;28;20093;-52
2024/01/05 08:37:28;;;;;;;6.32;0.70;;;;;;;;;;4966020;28;20041;-52
2024/01/05 08:39:56;;;;;;;5.87;0.70;;;;;;;;;;4610337;28;10000055;-50
2024/01/05 08:42:24;;;;;;;7.22;0.60;;;;;;;;;;4968089;28;20104;-52
2024/01/05 08:44:53;;;;;;;8.20;0.50;;;;;;;;;;4949280;28;20346;-54
2024/01/05 08:47:21;;;;;;;10.75;1.13;;;;;;;;;;4963123;28;20046;-49
2024/01/05 08:49:49;;;;;;;7.78;1.00;;;;;;;;;;4950819;28;20044;-53
2024/01/05 08:52:19;;;;;;;8.50;1.10;;;;;;;;;;4963962;28;20030;-56
2024/01/05 08:54:49;;;;;;;5.15;0.55;;;;;;;;;;4962183;28;20581;-55
2024/01/05 08:57:17;;;;;;;9.05;0.90;;;;;;;;;;4946221;28;20042;-53
2024/01/05 08:59:48;;;;;;;7.55;0.95;;;;;;;;;;4950500;28;20478;-54
2024/01/05 09:02:16;;;;;;;8.37;0.87;;;;;;;;;;4569101;28;10000177;-53
2024/01/05 09:04:49;;;;;;;7.97;0.93;;;;;;;;;;4948653;28;20099;-54
2024/01/05 09:07:17;;;;;;;5.93;0.90;;;;;;;;;;4933798;28;20046;-50
2024/01/05 09:09:44;;;;;;;8.07;1.03;;;;;;;;;;4910049;28;20049;-52
2024/01/05 09:12:12;;;;;;;6.70;0.80;;;;;;;;;;4942348;28;20089;-52
2024/01/05 09:14:42;;;;;;;7.93;1.08;;;;;;;;;;4941075;28;20051;-52
2024/01/05 09:17:10;;;;;;;6.60;0.70;;;;;;;;;;4955951;28;20049;-52
2024/01/05 09:19:40;;;;;;;5.47;0.90;;;;;;;;;;4946911;28;20042;-51
2024/01/05 09:22:09;;;;;;;6.17;0.70;;;;;;;;;;4948801;28;20097;-48
2024/01/05 09:24:39;;;;;;;10.15;1.20;;;;;;;;;;4948716;28;20045;-52
2024/01/05 09:27:07;;;;;;;5.68;0.80;;;;;;;;;;4942253;28;20049;-54
2024/01/05 09:29:34;;;;;;;6.50;0.82;;;;;;;;;;4959924;28;20485;-51
2024/01/05 09:32:02;;;;;;;5.40;0.95;;;;;;;;;;4929426;28;20045;-49
2024/01/05 09:34:30;;;;;;;7.13;1.20;;;;;;;;;;4809530;28;21153;-52
2024/01/05 09:36:59;;;;;;;5.97;0.82;;;;;;;;;;4945532;28;20613;-50
2024/01/05 09:39:27;;;;;;;4.88;0.70;;;;;;;;;;4966960;28;20054;-50
2024/01/05 09:42:00;;;;;;;6.32;0.60;;;;;;;;;;4961664;28;20338;-53
2024/01/05 09:44:27;;;;;;;6.68;1.17;;;;;;;;;;4962781;28;20053;-52
2024/01/05 09:46:55;;;;;;;6.20;0.80;;;;;;;;;;4939659;28;20124;-54
2024/01/05 09:49:24;;;;;;;5.97;0.73;;;;;;;;;;4959560;28;20467;-50
2024/01/05 09:51:52;;;;;;;8.65;1.02;;;;;;;;;;4917439;28;20053;-48
2024/01/05 09:54:21;;;;;;;4.45;0.50;;;;;;;;;;4935237;28;20587;-50
2024/01/05 09:56:50;;;;;;;8.32;1.23;;;;;;;;;;4942668;28;20033;-52
2024/01/05 09:59:20;;;;;;;5.90;0.43;;;;;;;;;;4947739;28;20066;-50
2024/01/05 10:01:48;;;;;;;7.15;0.70;;;;;;;;;;4957259;28;20033;-47
2024/01/05 10:04:19;;;;;;;8.60;0.75;;;;;;;;;;4960834;28;20522;-48
2024/01/05 10:06:47;;;;;;;5.00;0.80;;;;;;;;;;4938921;28;20568;-48
2024/01/05 10:09:14;;;;;;;9.20;1.27;;;;;;;;;;4956122;28;20070;-51
2024/01/05 10:11:46;;;;;;;10.83;1.20;;;;;;;;;;4947030;28;20041;-50
2024/01/05 10:14:15;;;;;;;6.40;0.82;;;;;;;;;;4958782;28;20053;-52
2024/01/05 10:16:43;;;;;;;7.40;1.48;;;;;;;;;;4948776;28;20046;-48
2024/01/05 10:19:12;;;;;;;6.05;0.70;;;;;;;;;;4961664;28;20034;-53
2024/01/05 10:21:41;;;;;;;8.57;0.80;;;;;;;;;;4960537;28;20087;-51
2024/01/05 10:24:16;;;;;;;7.00;0.80;;;;;;;;;;4942791;28;20577;-53
2024/01/05 10:26:48;;;;;;;5.55;1.00;;;;;;;;;;4947575;28;20038;-51
2024/01/05 10:29:15;;;;;;;8.07;0.95;;;;;;;;;;4940874;28;20041;-49
2024/01/05 10:31:43;;;;;;;7.45;1.15;;;;;;;;;;4963173;28;20045;-53
2024/01/05 10:34:11;;;;;;;12.48;1.10;;;;;;;;;;4809807;28;20560;-48
2024/01/05 10:36:40;;;;;;;7.23;0.80;;;;;;;;;;4946630;28;20038;-52
2024/01/05 10:39:09;;;;;;;7.78;1.20;;;;;;;;;;4957310;28;20050;-48
2024/01/05 10:41:37;;;;;;;8.25;1.10;;;;;;;;;;4963627;28;20588;-53
2024/01/05 10:44:06;;;;;;;11.73;1.55;;;;;;;;;;4957673;28;20072;-51
2024/01/05 10:46:34;;;;;;;8.88;1.00;;;;;;;;;;4945730;28;20176;-49
2024/01/05 10:49:03;;;;;;;5.93;0.93;;;;;;;;;;4963450;28;20061;-50
2024/01/05 10:51:33;;;;;;;6.57;1.00;;;;;;;;;;4943739;28;20042;-48
2024/01/05 10:54:02;;;;;;;9.02;1.45;;;;;;;;;;4956025;28;20053;-50
2024/01/05 10:56:31;;;;;;;8.15;0.93;;;;;;;;;;4931774;28;20042;-50
2024/01/05 10:58:59;;;;;;;6.32;0.95;;;;;;;;;;4956869;28;20057;-49
2024/01/05 11:01:30;;;;;;;6.67;0.90;;;;;;;;;;4948528;28;20038;-51
2024/01/05 11:04:00;;;;;;;6.63;1.17;;;;;;;;;;4254806;28;10000297;-49
2024/01/05 11:06:29;;;;;;;8.93;1.58;;;;;;;;;;4934506;28;20067;-53
2024/01/05 11:09:02;;;;;;;7.63;1.02;;;;;;;;;;4927444;28;20076;-49
2024/01/05 11:11:35;;;;;;;7.00;0.93;;;;;;;;;;4959501;28;20041;-49
2024/01/05 11:14:10;;;;;;;5.37;1.13;;;;;;;;;;4945011;28;20067;-49
2024/01/05 11:16:50;;;;;;;9.13;1.45;;;;;;;;;;4943368;28;20045;-48
2024/01/05 11:19:43;;;;;;;5.03;1.40;;;;;;;;;;4959846;28;20276;-47
2024/01/05 11:22:14;;;;;;;6.53;1.42;;;;;;;;;;4949807;28;20176;-48
2024/01/05 11:24:42;;;;;;;10.40;1.48;;;;;;;;;;4953448;28;21104;-47
2024/01/05 11:27:30;;;;;;;5.27;1.00;;;;;;;;;;4952651;28;20057;-49
2024/01/05 11:29:59;;;;;;;6.60;0.90;;;;;;;;;;4955865;28;20062;-52
2024/01/05 11:32:35;;;;;;;5.90;1.13;;;;;;;;;;4878858;28;20380;-50
2024/01/05 11:35:04;;;;;;;7.50;1.17;;;;;;;;;;4873498;28;20492;-51
2024/01/05 11:37:32;;;;;;;4.57;0.75;;;;;;;;;;4958094;28;20045;-47
2024/01/05 11:40:00;;;;;;;10.00;1.10;;;;;;;;;;4957264;28;20033;-51
2024/01/05 11:42:33;;;;;;;5.50;0.95;;;;;;;;;;4958450;28;20046;-48
2024/01/05 11:45:02;;;;;;;8.32;0.90;;;;;;;;;;4950852;28;20136;-47
2024/01/05 11:47:41;;;;;;;6.70;0.70;;;;;;;;;;4965909;28;20119;-49
2024/01/05 11:50:26;;;;;;;9.27;0.95;;;;;;;;;;4953532;28;20064;-49
2024/01/05 11:53:19;;;;;;;5.00;0.83;;;;;;;;;;4947261;28;20201;-48
2024/01/05 11:55:48;;;;;;;5.72;0.70;;;;;;;;;;4947930;28;20912;-50
2024/01/05 11:58:19;;;;;;;5.97;0.70;;;;;;;;;;4956061;28;20767;-50
2024/01/05 12:00:47;;;;;;;5.18;0.95;;;;;;;;;;4958915;28;20045;-51
2024/01/05 12:03:17;;;;;;;5.45;0.88;;;;;;;;;;4954363;28;20046;-48
2024/01/05 12:05:48;;;;;;;7.83;0.90;;;;;;;;;;4955453;28;20492;-52
2024/01/05 12:08:18;;;;;;;7.13;1.38;;;;;;;;;;4951887;28;20508;-49
2024/01/05 12:10:46;;;;;;;4.72;1.27;;;;;;;;;;4957710;28;20049;-48
2024/01/05 12:13:13;;;;;;;7.78;1.80;;;;;;;;;;4954042;28;20592;-50
2024/01/05 12:15:41;;;;;;;12.65;1.60;;;;;;;;;;4951629;28;20689;-49
2024/01/05 12:18:26;;;;;;;6.13;1.33;;;;;;;;;;4970704;28;20049;-50
2024/01/05 12:21:11;;;;;;;5.13;1.42;;;;;;;;;;4951875;28;20636;-52
2024/01/05 12:23:41;;;;;;;6.78;1.42;;;;;;;;;;4955270;28;20041;-49
2024/01/05 12:26:14;;;;;;;6.28;1.00;;;;;;;;;;4942548;28;20104;-50
2024/01/05 12:28:42;;;;;;;8.55;1.30;;;;;;;;;;4954832;28;20049;-52
2024/01/05 12:31:10;;;;;;;8.20;1.17;;;;;;;;;;4594446;28;10000468;-48
2024/01/05 12:33:55;;;;;;;6.55;0.90;;;;;;;;;;4872527;28;20159;-49
2024/01/05 12:36:27;;;;;;;8.60;1.00;;;;;;;;;;4944082;28;21167;-49
2024/01/05 12:39:06;;;;;;;6.28;1.00;;;;;;;;;;4945443;28;20581;-49
2024/01/05 12:41:34;;;;;;;5.93;0.82;;;;;;;;;;4949160;28;20041;-49
2024/01/05 12:44:03;;;;;;;6.55;0.95;;;;;;;;;;4957172;28;20068;-51
2024/01/05 12:46:31;;;;;;;7.85;0.93;;;;;;;;;;4945136;28;20242;-51
2024/01/05 12:49:00;;;;;;;6.73;0.77;;;;;;;;;;4601193;28;10001102;-49
2024/01/05 12:51:28;;;;;;;7.07;0.93;;;;;;;;;;4947778;28;20048;-52
2024/01/05 12:53:59;;;;;;;3.35;0.50;;;;;;;;;;4959836;28;20048;-50
2024/01/05 12:56:27;;;;;;;3.55;0.40;;;;;;;;;;4956210;28;20046;-49
2024/01/05 12:58:54;;;;;;;7.33;0.80;;;;;;;;;;4955288;28;20464;-50
2024/01/05 13:01:23;;;;;;;9.23;0.70;;;;;;;;;;4966702;28;20121;-49
2024/01/05 13:03:51;;;;;;;5.80;0.60;;;;;;;;;;4950542;28;20724;-51
2024/01/05 13:06:22;;;;;;;6.55;0.90;;;;;;;;;;4948143;28;20053;-47
2024/01/05 13:08:50;;;;;;;3.85;0.57;;;;;;;;;;4966439;28;20042;-52
2024/01/05 13:11:19;;;;;;;7.40;0.70;;;;;;;;;;4957184;28;20678;-49
2024/01/05 13:13:48;;;;;;;4.57;0.52;;;;;;;;;;4966137;28;20641;-50
2024/01/05 13:16:16;;;;;;;8.18;1.02;;;;;;;;;;4955847;28;20054;-48
2024/01/05 13:18:44;;;;;;;6.63;0.70;;;;;;;;;;4963744;28;20041;-49
2024/01/05 13:21:12;;;;;;;3.80;0.50;;;;;;;;;;4961676;28;20560;-49
2024/01/05 13:23:42;;;;;;;4.63;0.57;;;;;;;;;;4959865;28;20636;-48
2024/01/05 13:26:10;;;;;;;6.43;0.50;;;;;;;;;;4952519;28;20310;-47
2024/01/05 13:28:40;;;;;;;5.45;0.70;;;;;;;;;;4951230;28;20069;-52
2024/01/05 13:31:08;;;;;;;6.05;0.70;;;;;;;;;;4950414;28;20448;-49
2024/01/05 13:33:36;;;;;;;7.43;0.90;;;;;;;;;;4887314;28;20519;-52
2024/01/05 13:36:05;;;;;;;4.50;0.80;;;;;;;;;;4881094;28;20114;-49
2024/01/05 13:38:33;;;;;;;5.18;1.15;;;;;;;;;;4949660;28;20046;-49
2024/01/05 13:41:04;;;;;;;5.22;0.70;;;;;;;;;;4959780;28;20046;-50
2024/01/05 13:43:32;;;;;;;6.65;0.60;;;;;;;;;;4952085;28;20626;-50
2024/01/05 13:46:00;;;;;;;6.78;0.88;;;;;;;;;;4949291;28;20507;-48
2024/01/05 13:48:28;;;;;;;5.00;0.63;;;;;;;;;;4958012;28;20442;-48
2024/01/05 13:50:57;;;;;;;6.38;0.90;;;;;;;;;;4966677;28;20156;-48
2024/01/05 13:53:26;;;;;;;7.53;0.80;;;;;;;;;;4961035;28;20136;-47
2024/01/05 13:55:54;;;;;;;7.43;0.80;;;;;;;;;;4960293;28;20050;-49
2024/01/05 13:58:24;;;;;;;6.07;0.77;;;;;;;;;;4961429;28;20049;-51
2024/01/05 14:00:53;;;;;;;4.13;0.90;;;;;;;;;;4965849;28;21587;-47
2024/01/05 14:03:23;;;;;;;6.15;1.20;;;;;;;;;;4967654;28;20041;-52
2024/01/05 14:05:51;;;;;;;7.15;1.20;;;;;;;;;;4945675;28;20046;-49
2024/01/05 14:08:19;;;;;;;5.18;1.00;;;;;;;;;;4969520;28;20041;-47
2024/01/05 14:10:50;;;;;;;7.05;0.80;;;;;;;;;;4940787;28;20289;-48
2024/01/05 14:13:18;;;;;;;5.60;0.60;;;;;;;;;;4963389;28;20042;-48
2024/01/05 14:15:47;;;;;;;8.18;1.17;;;;;;;;;;4955543;28;20046;-48
2024/01/05 14:18:15;;;;;;;5.45;0.90;;;;;;;;;;4959903;28;20074;-50
2024/01/05 14:20:43;;;;;;;5.05;1.10;;;;;;;;;;4960946;28;20985;-50
2024/01/05 14:23:11;;;;;;;6.28;1.25;;;;;;;;;;4959043;28;20060;-50
2024/01/05 14:25:39;;;;;;;6.40;1.00;;;;;;;;;;4946605;28;20049;-47
2024/01/05 14:28:07;;;;;;;9.48;1.30;;;;;;;;;;4952224;28;20062;-50
2024/01/05 14:30:38;;;;;;;7.82;0.90;;;;;;;;;;4960938;28;20049;-48
2024/01/05 14:33:08;;;;;;;6.97;0.98;;;;;;;;;;4917158;28;20050;-51
2024/01/05 14:35:36;;;;;;;7.60;1.10;;;;;;;;;;4868669;28;21145;-49
2024/01/05 14:38:04;;;;;;;4.83;0.73;;;;;;;;;;4966444;28;20050;-51
2024/01/05 14:40:32;;;;;;;4.15;0.60;;;;;;;;;;4953615;28;21011;-47
2024/01/05 14:43:00;;;;;;;5.50;0.90;;;;;;;;;;4962251;28;20554;-47
2024/01/05 14:45:27;;;;;;;7.88;0.70;;;;;;;;;;4952261;28;20058;-50
2024/01/05 14:47:56;;;;;;;5.80;0.80;;;;;;;;;;4949556;28;21477;-48